Boston, MA (02127)

6:05 AM EDT on September 29, 2016 (GMT -0400)
Telegraph Hill | | Change Station

Elev 101 ft 42.33 °N, 71.04 °W | Updated 1 minute ago

Partly Cloudy
Partly Cloudy
56.8 °F
Feels Like 56.8 °F
N
6.2
Wind Variable Wind from NNE
Gusts 11.8 mph

Today
High -- | Low -- °F
--% Chance of Precip.
Yesterday
High -- | Low -- °F
Precip. -- in
Pressure 30.40 in
Visibility 10.0 miles
Clouds Few 2100 ft
Dew Point 49 °F
Humidity 76%
Rainfall 0.00 in
Snow Depth Not available.
6:39 AM 6:28 PM
Waning Crescent, 2% visible
METAR KBOS 290954Z 03017KT 10SM FEW021 13/09 A3040 RMK AO2 SLP293 T01280094 $
Pressure 30.40 in
Visibility 10.0 miles
Clouds Few 2100 ft
Dew Point 49 °F
Humidity 76%
Rainfall 0.00 in
Snow Depth Not available.
6:39 AM 6:28 PM
Waning Crescent, 2% visible
METAR KBOS 290954Z 03017KT 10SM FEW021 13/09 A3040 RMK AO2 SLP293 T01280094 $

10-Day Weather Forecast

Almanac

Astronomy

Sep. 29, 2016 Rise Set
Actual Time
Civil Twilight
Nautical Twilight
Astronomical Twilight
Moon
Length of Visible Light
Length of Day
Tomorrow will be .
, % of the Moon is Illuminated

Today's Extremes

State Highs State Lows

Community

WunderPhotos

Upload Photos

1,942,446 photos uploaded!

WunderBlog® & News

Nearby

Air Quality

  Air Quality AQ Index Pollutant
Not available.

Snow Depth

Station Depth Elevation

Earthquake Activity

City Distance Mag. Time & Date
Minimum magnitude displayed is 2.5.

Coastal Water Temperatures

Place Temperature

Stations

Nearby Weather Stations

Station Location Temp. Windchill Dew Point Humidity Wind Precip. Elev Updated Type
                   

Watches & Warnings

There are currently no watches in effect.